createdAt,value
2018-04-14T00:01:40.881Z,93715.60
2018-04-14T00:04:07.249Z,93710.57
2018-04-14T00:06:33.577Z,93719.66
2018-04-14T00:08:59.911Z,93720.97
2018-04-14T00:11:26.354Z,93719.60
2018-04-14T00:13:52.703Z,93715.69
2018-04-14T00:16:19.024Z,93709.75
2018-04-14T00:18:45.477Z,93710.62
2018-04-14T00:21:11.884Z,93716.41
2018-04-14T00:23:38.246Z,93721.75
2018-04-14T00:26:04.667Z,93718.27
2018-04-14T00:28:31.080Z,93716.65
2018-04-14T00:30:57.442Z,93719.87
2018-04-14T00:33:23.905Z,93720.05
2018-04-14T00:35:50.237Z,93710.64
2018-04-14T00:38:16.668Z,93719.30
2018-04-14T00:40:43.088Z,93719.03
2018-04-14T00:43:09.558Z,93719.78
2018-04-14T00:45:35.941Z,93722.47
2018-04-14T00:48:02.378Z,93720.83
2018-04-14T00:50:28.705Z,93721.21
2018-04-14T00:52:55.174Z,93719.09
2018-04-14T00:55:21.668Z,93721.95
2018-04-14T00:57:48.215Z,93722.89
2018-04-14T01:00:14.563Z,93721.20
2018-04-14T01:02:40.912Z,93724.43
2018-04-14T01:05:07.293Z,93723.47
2018-04-14T01:07:33.719Z,93725.89
2018-04-14T01:10:00.027Z,93721.32
2018-04-14T01:12:26.347Z,93722.19
2018-04-14T01:14:52.725Z,93722.20
2018-04-14T01:17:19.116Z,93724.59
2018-04-14T01:19:45.481Z,93722.67
2018-04-14T01:22:11.866Z,93721.10
2018-04-14T01:24:38.365Z,93718.87
2018-04-14T01:27:04.712Z,93717.27
2018-04-14T01:29:31.113Z,93720.64
2018-04-14T01:31:57.488Z,93722.55
2018-04-14T01:34:23.797Z,93724.88
2018-04-14T01:36:50.127Z,93731.22
2018-04-14T01:39:16.632Z,93732.19
2018-04-14T01:41:43.010Z,93735.73
2018-04-14T01:44:09.324Z,93738.33
2018-04-14T01:46:35.714Z,93744.94
2018-04-14T01:49:02.112Z,93744.17
2018-04-14T01:51:28.461Z,93737.41
2018-04-14T01:53:54.827Z,93742.01
2018-04-14T01:56:21.147Z,93746.42
2018-04-14T01:58:47.565Z,93752.86
2018-04-14T02:01:13.949Z,93744.56
2018-04-14T02:03:40.321Z,93746.70
2018-04-14T02:06:06.624Z,93752.42
2018-04-14T02:08:33.096Z,93752.28
2018-04-14T02:10:59.466Z,93756.59
2018-04-14T02:13:25.863Z,93763.25
2018-04-14T02:15:52.221Z,93763.86
2018-04-14T02:18:18.542Z,93766.27
2018-04-14T02:20:44.928Z,93770.73
2018-04-14T02:23:11.326Z,93766.23
2018-04-14T02:25:37.672Z,93768.33
2018-04-14T02:28:04.083Z,93767.97
2018-04-14T02:30:30.477Z,93777.56
2018-04-14T02:32:56.825Z,93769.44
2018-04-14T02:35:23.148Z,93767.14
2018-04-14T02:37:49.523Z,93773.94
2018-04-14T02:40:15.840Z,93768.88
2018-04-14T02:42:42.175Z,93778.55
2018-04-14T02:45:08.553Z,93777.33
2018-04-14T02:47:34.976Z,93774.19
2018-04-14T02:50:01.277Z,93774.48
2018-04-14T02:52:27.693Z,93776.85
2018-04-14T02:54:54.082Z,93782.35
2018-04-14T02:57:20.412Z,93785.38
2018-04-14T02:59:46.894Z,93783.48
2018-04-14T03:02:13.263Z,93779.17
2018-04-14T03:04:39.653Z,93785.92
2018-04-14T03:07:06.049Z,93780.94
2018-04-14T03:09:32.503Z,93783.48
2018-04-14T03:11:58.859Z,93790.11
2018-04-14T03:14:25.300Z,93785.48
2018-04-14T03:16:51.609Z,93786.71
2018-04-14T03:19:17.969Z,93779.76
2018-04-14T03:21:44.431Z,93785.44
2018-04-14T03:24:10.763Z,93784.59
2018-04-14T03:26:37.150Z,93781.98
2018-04-14T03:29:03.561Z,93782.20
2018-04-14T03:31:29.863Z,93791.02
2018-04-14T03:33:56.197Z,93791.25
2018-04-14T03:36:22.563Z,93786.59
2018-04-14T03:38:48.982Z,93792.75
2018-04-14T03:41:15.339Z,93800.72
2018-04-14T03:43:41.860Z,93803.75
2018-04-14T03:46:08.280Z,93802.30
2018-04-14T03:48:34.645Z,93800.59
2018-04-14T03:51:01.006Z,93799.38
2018-04-14T03:53:27.318Z,93802.51
2018-04-14T03:55:53.669Z,93802.09
2018-04-14T03:58:20.148Z,93802.44
2018-04-14T04:00:46.498Z,93802.66
2018-04-14T04:03:12.965Z,93804.50
2018-04-14T04:05:39.375Z,93801.36
2018-04-14T04:08:05.854Z,93804.20
2018-04-14T04:10:32.251Z,93803.94
2018-04-14T04:12:58.881Z,93802.88
2018-04-14T04:15:25.288Z,93802.64
2018-04-14T04:17:51.845Z,93811.27
2018-04-14T04:20:56.162Z,93810.09
2018-04-14T04:23:34.983Z,93813.06
2018-04-14T04:26:01.591Z,93811.48
2018-04-14T04:28:28.466Z,93810.05
2018-04-14T04:30:55.037Z,93811.05
2018-04-14T04:33:21.529Z,93815.94
2018-04-14T04:35:48.017Z,93815.02
2018-04-14T04:38:14.521Z,93811.81
2018-04-14T04:40:41.385Z,93815.97
2018-04-14T04:43:07.905Z,93811.70
2018-04-14T04:45:34.354Z,93815.97
2018-04-14T04:48:01.112Z,93817.81
2018-04-14T04:50:28.011Z,93819.59
2018-04-14T04:52:54.953Z,93823.71
2018-04-14T04:55:22.469Z,93825.06
2018-04-14T04:57:49.311Z,93834.48
2018-04-14T05:00:15.704Z,93833.20
2018-04-14T05:02:42.229Z,93839.23
2018-04-14T05:05:08.587Z,93839.96
2018-04-14T05:07:35.014Z,93837.41
2018-04-14T05:10:01.841Z,93844.36
2018-04-14T05:12:28.173Z,93846.41
2018-04-14T05:14:54.562Z,93853.36
2018-04-14T05:17:21.067Z,93850.70
2018-04-14T05:19:47.539Z,93855.20
2018-04-14T05:22:14.150Z,93860.70
2018-04-14T05:24:40.574Z,93861.70
2018-04-14T05:27:07.058Z,93864.98
2018-04-14T05:29:33.989Z,93868.00
2018-04-14T05:32:00.580Z,93868.25
2018-04-14T05:34:27.071Z,93857.89
2018-04-14T05:36:53.427Z,93859.81
2018-04-14T05:39:20.005Z,93865.31
2018-04-14T05:41:46.441Z,93872.02
2018-04-14T05:44:12.986Z,93873.95
2018-04-14T05:46:39.522Z,93884.99
2018-04-14T05:49:05.955Z,93889.02
2018-04-14T05:51:32.811Z,93890.80
2018-04-14T05:53:59.279Z,93891.05
2018-04-14T05:56:25.925Z,93890.01
2018-04-14T05:58:52.728Z,93899.27
2018-04-14T06:01:19.203Z,93897.56
2018-04-14T06:03:45.556Z,93898.95
2018-04-14T06:06:11.957Z,93895.59
2018-04-14T06:08:38.379Z,93898.41
2018-04-14T06:11:04.739Z,93906.10
2018-04-14T06:13:31.285Z,93904.06
2018-04-14T06:15:57.733Z,93906.34
2018-04-14T06:18:24.699Z,93905.67
2018-04-14T06:20:51.477Z,93901.83
2018-04-14T06:23:18.017Z,93900.54
2018-04-14T06:25:44.483Z,93901.39
2018-04-14T06:28:11.157Z,93902.47
2018-04-14T06:30:37.553Z,93907.89
2018-04-14T06:33:03.863Z,93907.48
2018-04-14T06:35:30.289Z,93909.86
2018-04-14T06:37:56.702Z,93916.17
2018-04-14T06:40:23.271Z,93911.30
2018-04-14T06:42:49.658Z,93913.52
2018-04-14T06:45:16.035Z,93907.38
2018-04-14T06:47:42.676Z,93910.02
2018-04-14T06:50:09.320Z,93917.33
2018-04-14T06:52:35.690Z,93920.98
2018-04-14T06:55:02.192Z,93917.80
2018-04-14T06:57:28.561Z,93916.84
2018-04-14T06:59:55.153Z,93915.21
2018-04-14T07:02:21.768Z,93917.84
2018-04-14T07:04:48.221Z,93920.10
2018-04-14T07:07:14.705Z,93918.09
2018-04-14T07:09:41.717Z,93915.92
2018-04-14T07:12:08.113Z,93926.93
2018-04-14T07:14:34.559Z,93927.07
2018-04-14T07:17:01.002Z,93925.41
2018-04-14T07:19:27.451Z,93920.23
2018-04-14T07:21:53.893Z,93927.39
2018-04-14T07:24:20.315Z,93929.70
2018-04-14T07:26:46.673Z,93929.38
2018-04-14T07:29:14.139Z,93933.89
2018-04-14T07:31:40.554Z,93931.53
2018-04-14T07:34:06.885Z,93930.48
2018-04-14T07:36:33.607Z,93931.98
2018-04-14T07:39:00.159Z,93935.73
2018-04-14T07:41:26.568Z,93938.92
2018-04-14T07:43:53.044Z,93943.31
2018-04-14T07:46:19.527Z,93940.33
2018-04-14T07:48:45.912Z,93935.51
2018-04-14T07:51:12.644Z,93934.86
2018-04-14T07:53:38.993Z,93941.52
2018-04-14T07:56:05.329Z,93939.96
2018-04-14T07:58:32.920Z,93940.52
2018-04-14T08:00:59.880Z,93933.77
2018-04-14T08:03:26.293Z,93935.52
2018-04-14T08:05:52.685Z,93936.19
2018-04-14T08:08:19.056Z,93942.09
2018-04-14T08:10:45.520Z,93931.77
2018-04-14T08:13:11.912Z,93941.16
2018-04-14T08:15:38.282Z,93940.08
2018-04-14T08:18:04.624Z,93938.14
2018-04-14T08:20:31.134Z,93934.38
2018-04-14T08:22:57.525Z,93935.45
2018-04-14T08:25:23.921Z,93932.78
2018-04-14T08:27:51.445Z,93928.02
2018-04-14T08:30:18.263Z,93933.89
2018-04-14T08:32:44.661Z,93925.58
2018-04-14T08:35:11.222Z,93933.41
2018-04-14T08:37:37.719Z,93928.52
2018-04-14T08:40:04.465Z,93928.80
2018-04-14T08:42:30.970Z,93932.95
2018-04-14T08:44:57.578Z,93925.00
2018-04-14T08:47:24.096Z,93920.59
2018-04-14T08:49:50.603Z,93926.41
2018-04-14T08:52:17.104Z,93919.61
2018-04-14T08:54:43.715Z,93917.98
2018-04-14T08:57:10.446Z,93916.80
2018-04-14T08:59:36.999Z,93916.59
2018-04-14T09:02:03.581Z,93909.81
2018-04-14T09:04:29.986Z,93908.98
2018-04-14T09:06:56.934Z,93909.23
2018-04-14T09:09:23.594Z,93910.80
2018-04-14T09:11:49.998Z,93909.13
2018-04-14T09:14:16.400Z,93898.73
2018-04-14T09:16:42.930Z,93898.72
2018-04-14T09:19:09.546Z,93901.47
2018-04-14T09:21:35.913Z,93898.47
2018-04-14T09:24:02.372Z,93892.48
2018-04-14T09:26:28.997Z,93893.61
2018-04-14T09:28:55.593Z,93885.36
2018-04-14T09:31:22.922Z,93885.92
2018-04-14T09:33:49.415Z,93882.02
2018-04-14T09:36:15.806Z,93882.48
2018-04-14T09:38:42.185Z,93875.56
2018-04-14T09:41:08.657Z,93878.92
2018-04-14T09:43:35.002Z,93878.84
2018-04-14T09:46:01.404Z,93871.27
2018-04-14T09:48:28.614Z,93878.71
2018-04-14T09:50:55.046Z,93876.89
2018-04-14T09:53:21.441Z,93871.13
2018-04-14T09:55:47.927Z,93869.22
2018-04-14T09:58:14.284Z,93866.09
2018-04-14T10:00:47.041Z,93856.89
2018-04-14T10:03:19.481Z,93858.32
2018-04-14T10:05:45.944Z,93856.67
2018-04-14T10:08:12.549Z,93853.73
2018-04-14T10:10:39.034Z,93863.89
2018-04-14T10:13:05.477Z,93852.36
2018-04-14T10:15:31.912Z,93847.58
2018-04-14T10:17:58.264Z,93847.89
2018-04-14T10:20:24.789Z,93847.86
2018-04-14T10:22:51.255Z,93848.36
2018-04-14T10:25:17.782Z,93851.36
2018-04-14T10:27:44.116Z,93850.57
2018-04-14T10:30:10.654Z,93848.83
2018-04-14T10:32:37.111Z,93842.93
2018-04-14T10:35:03.477Z,93848.34
2018-04-14T10:37:29.880Z,93847.03
2018-04-14T10:39:57.249Z,93840.65
2018-04-14T10:42:23.747Z,93848.44
2018-04-14T10:44:50.218Z,93844.28
2018-04-14T10:47:16.611Z,93844.96
2018-04-14T10:49:43.038Z,93838.58
2018-04-14T10:52:09.397Z,93831.38
2018-04-14T10:54:36.098Z,93834.79
2018-04-14T10:57:02.634Z,93845.47
2018-04-14T10:59:29.070Z,93835.72
2018-04-14T11:01:55.417Z,93841.06
2018-04-14T11:04:21.822Z,93834.34
2018-04-14T11:06:48.257Z,93833.75
2018-04-14T11:09:15.093Z,93832.88
2018-04-14T11:11:41.555Z,93828.72
2018-04-14T11:14:07.982Z,93832.36
2018-04-14T11:16:34.409Z,93836.80
2018-04-14T11:19:00.801Z,93835.66
2018-04-14T11:21:27.742Z,93841.97
2018-04-14T11:23:54.183Z,93833.78
2018-04-14T11:26:20.679Z,93831.39
2018-04-14T11:28:47.213Z,93830.68
2018-04-14T11:31:13.721Z,93823.27
2018-04-14T11:33:40.241Z,93820.67
2018-04-14T11:36:06.855Z,93822.61
2018-04-14T11:38:33.187Z,93820.05
2018-04-14T11:40:59.738Z,93824.91
2018-04-14T11:43:26.270Z,93824.76
2018-04-14T11:45:52.675Z,93819.50
2018-04-14T11:48:19.549Z,93814.01
2018-04-14T11:50:46.038Z,93817.99
2018-04-14T11:53:12.495Z,93811.03
2018-04-14T11:55:40.163Z,93803.16
2018-04-14T11:58:06.804Z,93801.15
2018-04-14T12:00:33.249Z,93804.53
2018-04-14T12:02:59.765Z,93802.87
2018-04-14T12:05:27.487Z,93804.11
2018-04-14T12:07:54.048Z,93801.94
2018-04-14T12:10:20.671Z,93796.22
2018-04-14T12:12:47.220Z,93793.78
2018-04-14T12:15:13.678Z,93795.16
2018-04-14T12:17:40.180Z,93791.67
2018-04-14T12:20:07.013Z,93789.19
2018-04-14T12:22:33.464Z,93787.17
2018-04-14T12:25:00.137Z,93785.30
2018-04-14T12:27:26.671Z,93783.03
2018-04-14T12:29:53.155Z,93786.11
2018-04-14T12:32:19.819Z,93784.27
2018-04-14T12:34:46.198Z,93784.34
2018-04-14T12:37:12.806Z,93777.55
2018-04-14T12:39:39.356Z,93780.65
2018-04-14T12:42:06.246Z,93774.95
2018-04-14T12:44:32.679Z,93768.81
2018-04-14T12:46:59.402Z,93778.17
2018-04-14T12:49:26.327Z,93779.72
2018-04-14T12:51:53.015Z,93771.95
2018-04-14T12:54:19.475Z,93770.58
2018-04-14T12:56:46.472Z,93769.27
2018-04-14T12:59:12.931Z,93766.63
2018-04-14T13:01:40.239Z,93764.35
2018-04-14T13:04:06.911Z,93759.24
2018-04-14T13:06:33.325Z,93766.37
2018-04-14T13:08:59.861Z,93763.20
2018-04-14T13:11:27.447Z,93770.50
2018-04-14T13:13:54.023Z,93766.84
2018-04-14T13:16:20.550Z,93766.09
2018-04-14T13:18:47.080Z,93764.20
2018-04-14T13:21:13.890Z,93766.22
2018-04-14T13:23:40.386Z,93759.53
2018-04-14T13:26:07.693Z,93757.98
2018-04-14T13:28:34.651Z,93755.74
2018-04-14T13:31:01.203Z,93751.75
2018-04-14T13:33:27.718Z,93750.30
2018-04-14T13:35:54.267Z,93749.97
2018-04-14T13:38:20.749Z,93749.31
2018-04-14T13:40:47.252Z,93749.30
2018-04-14T13:43:13.848Z,93743.14
2018-04-14T13:45:40.494Z,93745.30
2018-04-14T13:48:06.866Z,93741.45
2018-04-14T13:50:33.237Z,93741.28
2018-04-14T13:52:59.652Z,93738.09
2018-04-14T13:55:26.102Z,93748.71
2018-04-14T13:57:52.644Z,93740.83
2018-04-14T14:00:19.160Z,93742.91
2018-04-14T14:02:45.582Z,93737.25
2018-04-14T14:05:11.918Z,93736.34
2018-04-14T14:07:38.371Z,93734.09
2018-04-14T14:10:05.178Z,93731.30
2018-04-14T14:12:31.582Z,93735.37
2018-04-14T14:14:58.026Z,93727.70
2018-04-14T14:17:25.041Z,93728.31
2018-04-14T14:19:51.444Z,93723.46
2018-04-14T14:22:17.826Z,93722.61
2018-04-14T14:24:44.259Z,93718.55
2018-04-14T14:27:10.795Z,93720.28
2018-04-14T14:29:37.318Z,93718.83
2018-04-14T14:32:03.798Z,93720.97
2018-04-14T14:34:30.215Z,93722.20
2018-04-14T14:36:56.647Z,93719.17
2018-04-14T14:39:23.077Z,93717.09
2018-04-14T14:41:49.479Z,93719.52
2018-04-14T14:44:16.149Z,93719.23
2018-04-14T14:46:42.642Z,93721.32
2018-04-14T14:49:09.069Z,93721.78
2018-04-14T14:51:35.855Z,93718.06
2018-04-14T14:54:02.279Z,93719.47
2018-04-14T14:56:28.785Z,93721.66
2018-04-14T14:58:55.334Z,93719.41
2018-04-14T15:01:22.479Z,93720.45
2018-04-14T15:03:49.026Z,93712.75
2018-04-14T15:06:15.599Z,93711.89
2018-04-14T15:08:42.201Z,93718.27
2018-04-14T15:11:08.677Z,93719.87
2018-04-14T15:13:35.331Z,93724.03
2018-04-14T15:16:01.815Z,93724.43
2018-04-14T15:18:28.539Z,93722.97
2018-04-14T15:20:55.072Z,93726.02
2018-04-14T15:23:21.509Z,93726.17
2018-04-14T15:25:47.921Z,93723.91
2018-04-14T15:28:14.585Z,93718.03
2018-04-14T15:30:41.197Z,93715.52
2018-04-14T15:33:07.675Z,93707.84
2018-04-14T15:35:34.264Z,93707.84
2018-04-14T15:38:00.948Z,93714.32
2018-04-14T15:40:27.450Z,93712.70
2018-04-14T15:42:53.904Z,93706.52
2018-04-14T15:45:20.498Z,93723.19
2018-04-14T15:47:46.989Z,93724.27
2018-04-14T15:50:14.368Z,93719.55
2018-04-14T15:52:40.792Z,93722.70
2018-04-14T15:55:07.177Z,93722.92
2018-04-14T15:57:33.772Z,93715.99
2018-04-14T16:00:00.281Z,93720.84
2018-04-14T16:02:27.178Z,93720.92
2018-04-14T16:04:53.813Z,93721.23
2018-04-14T16:07:20.358Z,93727.50
2018-04-14T16:09:46.859Z,93722.12
2018-04-14T16:12:13.622Z,93720.19
2018-04-14T16:14:40.031Z,93725.19
2018-04-14T16:17:06.994Z,93730.02
2018-04-14T16:19:33.754Z,93722.57
2018-04-14T16:22:00.523Z,93726.05
2018-04-14T16:24:28.135Z,93734.58
2018-04-14T16:26:54.733Z,93739.19
2018-04-14T16:29:21.606Z,93737.17
2018-04-14T16:31:48.138Z,93737.08
2018-04-14T16:34:14.571Z,93733.78
2018-04-14T16:36:40.951Z,93738.66
2018-04-14T16:39:07.552Z,93734.34
2018-04-14T16:41:36.019Z,93740.08
2018-04-14T16:44:02.668Z,93736.44
2018-04-14T16:46:29.290Z,93747.39
2018-04-14T16:48:56.298Z,93746.39
2018-04-14T16:51:23.105Z,93752.60
2018-04-14T16:53:49.692Z,93754.29
2018-04-14T16:56:17.418Z,93753.74
2018-04-14T16:58:44.099Z,93758.85
2018-04-14T17:01:10.852Z,93761.80
2018-04-14T17:03:38.242Z,93770.14
2018-04-14T17:06:04.851Z,93768.60
2018-04-14T17:08:31.361Z,93775.52
2018-04-14T17:10:58.345Z,93772.70
2018-04-14T17:13:25.107Z,93777.01
2018-04-14T17:15:51.643Z,93779.47
2018-04-14T17:18:18.541Z,93782.05
2018-04-14T17:20:45.593Z,93780.50
2018-04-14T17:23:12.024Z,93788.20
2018-04-14T17:25:38.786Z,93796.89
2018-04-14T17:28:05.269Z,93803.30
2018-04-14T17:30:31.856Z,93805.67
2018-04-14T17:32:58.640Z,93813.06
2018-04-14T17:35:25.369Z,93816.97
2018-04-14T17:37:52.050Z,93816.61
2018-04-14T17:40:18.721Z,93818.97
2018-04-14T17:42:46.092Z,93821.42
2018-04-14T17:45:13.277Z,93833.20
2018-04-14T17:47:40.701Z,93840.14
2018-04-14T17:50:08.607Z,93842.64
2018-04-14T17:52:35.321Z,93842.59
2018-04-14T17:55:02.205Z,93844.98
2018-04-14T17:57:28.763Z,93845.17
2018-04-14T17:59:55.628Z,93848.84
2018-04-14T18:02:22.302Z,93857.09
2018-04-14T18:04:49.410Z,93857.72
2018-04-14T18:07:16.602Z,93871.97
2018-04-14T18:09:43.802Z,93869.70
2018-04-14T18:12:11.461Z,93868.20
2018-04-14T18:14:39.947Z,93876.80
2018-04-14T18:17:06.913Z,93892.96
2018-04-14T18:19:34.594Z,93886.64
2018-04-14T18:22:01.619Z,93883.18
2018-04-14T18:24:29.060Z,93895.24
2018-04-14T18:26:55.822Z,93895.50
2018-04-14T18:29:22.908Z,93899.68
2018-04-14T18:31:50.017Z,93900.26
2018-04-14T18:34:16.942Z,93906.29
2018-04-14T18:36:43.876Z,93911.75
2018-04-14T18:39:10.733Z,93907.33
2018-04-14T18:41:37.779Z,93917.73
2018-04-14T18:44:04.714Z,93913.98
2018-04-14T18:46:32.481Z,93921.66
2018-04-14T18:48:59.495Z,93918.17
2018-04-14T18:51:26.512Z,93913.36
2018-04-14T18:53:52.948Z,93917.41
2018-04-14T18:56:19.894Z,93916.50
2018-04-14T18:58:46.860Z,93918.91
2018-04-14T19:01:16.174Z,93921.13
2018-04-14T19:03:43.993Z,93916.40
2018-04-14T19:06:12.012Z,93923.75
2018-04-14T19:08:39.838Z,93932.30
2018-04-14T19:11:06.822Z,93937.38
2018-04-14T19:13:33.634Z,93937.55
2018-04-14T19:16:01.730Z,93931.08
2018-04-14T19:18:28.551Z,93933.70
2018-04-14T19:20:55.518Z,93942.86
2018-04-14T19:23:22.201Z,93937.59
2018-04-14T19:25:48.804Z,93942.27
2018-04-14T19:28:17.599Z,93939.05
2018-04-14T19:30:44.664Z,93934.32
2018-04-14T19:33:11.343Z,93940.28
2018-04-14T19:35:38.141Z,93934.14
2018-04-14T19:38:05.310Z,93946.27
2018-04-14T19:40:32.243Z,93937.42
2018-04-14T19:43:01.776Z,93937.06
2018-04-14T19:45:30.232Z,93948.59
2018-04-14T19:47:57.976Z,93945.04
2018-04-14T19:50:25.873Z,93948.80
2018-04-14T19:52:54.646Z,93954.71
2018-04-14T19:55:23.636Z,93961.25
2018-04-14T19:57:51.829Z,93946.63
2018-04-14T20:00:22.711Z,93952.44
2018-04-14T20:02:51.979Z,93947.62
2018-04-14T20:05:19.427Z,93954.64
2018-04-14T20:07:46.524Z,93956.97
2018-04-14T20:10:13.172Z,93959.33
2018-04-14T20:12:40.535Z,93953.44
2018-04-14T20:15:07.136Z,93954.20
2018-04-14T20:17:34.286Z,93961.06
2018-04-14T20:20:01.081Z,93958.86
2018-04-14T20:22:27.662Z,93956.34
2018-04-14T20:24:54.253Z,93961.89
2018-04-14T20:27:20.656Z,93971.30
2018-04-14T20:29:47.136Z,93970.66
2018-04-14T20:32:14.611Z,93972.68
2018-04-14T20:34:41.247Z,93967.28
2018-04-14T20:37:07.830Z,93974.98
2018-04-14T20:39:34.451Z,93968.77
2018-04-14T20:42:00.972Z,93978.30
2018-04-14T20:44:28.273Z,93972.75
2018-04-14T20:46:56.043Z,93977.85
2018-04-14T20:49:22.747Z,93979.78
2018-04-14T20:51:49.431Z,93976.14
2018-04-14T20:54:16.137Z,93977.77
2018-04-14T20:56:42.627Z,93982.31
2018-04-14T20:59:09.253Z,93978.86
2018-04-14T21:01:35.903Z,93974.81
2018-04-14T21:04:02.600Z,93978.63
2018-04-14T21:06:29.127Z,93973.78
2018-04-14T21:08:55.462Z,93981.76
2018-04-14T21:11:21.929Z,93976.39
2018-04-14T21:13:48.407Z,93974.53
2018-04-14T21:16:14.857Z,93979.52
2018-04-14T21:18:41.478Z,93981.55
2018-04-14T21:21:08.028Z,93979.11
2018-04-14T21:23:34.421Z,93982.88
2018-04-14T21:26:00.983Z,93984.12
2018-04-14T21:28:27.790Z,93990.39
2018-04-14T21:30:54.460Z,93988.98
2018-04-14T21:33:20.970Z,93991.34
2018-04-14T21:35:47.785Z,93995.94
2018-04-14T21:38:14.264Z,93995.80
2018-04-14T21:40:40.760Z,93997.36
2018-04-14T21:43:07.262Z,93998.84
2018-04-14T21:45:33.748Z,93996.20
2018-04-14T21:48:00.198Z,93993.22
2018-04-14T21:50:26.935Z,93998.20
2018-04-14T21:52:54.543Z,93995.64
2018-04-14T21:55:20.923Z,93993.38
2018-04-14T21:57:47.379Z,93981.20
2018-04-14T22:00:14.006Z,93986.24
2018-04-14T22:02:40.639Z,93986.66
2018-04-14T22:05:07.145Z,93993.70
2018-04-14T22:07:33.970Z,93992.98
2018-04-14T22:10:00.604Z,93996.15
2018-04-14T22:12:28.287Z,93998.61
2018-04-14T22:14:54.830Z,94003.20
2018-04-14T22:17:21.233Z,94006.86
2018-04-14T22:19:47.829Z,94008.23
2018-04-14T22:22:15.456Z,94009.41
2018-04-14T22:24:41.901Z,94013.08
2018-04-14T22:27:08.455Z,94005.27
2018-04-14T22:29:34.919Z,94009.48
2018-04-14T22:32:01.435Z,94002.50
2018-04-14T22:34:27.927Z,94009.86
2018-04-14T22:36:54.344Z,94010.08
2018-04-14T22:39:20.951Z,94009.76
2018-04-14T22:41:47.533Z,94009.76
2018-04-14T22:44:13.939Z,94007.91
2018-04-14T22:46:40.444Z,94003.29
2018-04-14T22:49:06.837Z,94009.08
2018-04-14T22:51:33.264Z,94003.16
2018-04-14T22:53:59.627Z,94013.17
2018-04-14T22:56:26.023Z,94014.05
2018-04-14T22:58:52.420Z,94013.37
2018-04-14T23:01:18.906Z,94011.03
2018-04-14T23:03:45.365Z,94011.08
2018-04-14T23:06:11.780Z,94005.86
2018-04-14T23:08:38.224Z,94003.66
2018-04-14T23:11:04.825Z,93999.90
2018-04-14T23:13:31.209Z,93999.42
2018-04-14T23:15:57.549Z,93986.27
2018-04-14T23:18:23.961Z,93982.07
2018-04-14T23:20:50.513Z,93983.27
2018-04-14T23:23:16.974Z,93981.23
2018-04-14T23:25:43.467Z,93986.36
2018-04-14T23:28:09.818Z,93981.48
2018-04-14T23:30:36.144Z,93988.72
2018-04-14T23:33:02.614Z,93982.38
2018-04-14T23:35:28.928Z,93982.41
2018-04-14T23:37:55.296Z,93976.70
2018-04-14T23:40:21.751Z,93977.66
2018-04-14T23:42:48.112Z,93978.57
2018-04-14T23:45:14.569Z,93976.42
2018-04-14T23:47:40.980Z,93971.08
2018-04-14T23:50:07.483Z,93972.41
2018-04-14T23:52:33.856Z,93980.95
2018-04-14T23:55:00.314Z,93967.99
2018-04-14T23:57:26.681Z,93969.00
2018-04-14T23:59:53.109Z,93968.73
